Desert Springs, Nevada Weather observations

Data are for 10 minute period ending at time listed.
 Day   Time    Ave.   Ave.  Ave.  Vector   Max.   Total    Solar   
  of    of     Air    Rel.  Wind   Wind    Wind  Precip.   Rad.    
Year   Day     Temp.  Hum.  Speed  Dir.    Gust                    
2014   (PST)    F      %     mph   deg.    mph     in.     W/m2    
------------------------------------------------------------------- 
 303   19:00   58.0    30    4.0   244      6.0    3.93       0  
 303   20:00   57.0    30    7.0   256     11.0    3.93       0  
 303   21:00   56.0    30    6.0   238      9.0    3.93       0  
 303   22:00   57.0    27    7.0   203     12.0    3.93       0  
 303   23:00   56.0    29    5.0   350     19.0    3.93       0  
 304    0:00   55.0    30    5.0   224      8.0    3.93       0  
 304    1:00   54.0    33    7.0   219     12.0    3.93       0  
 304    2:00   53.0    31    6.0   248     11.0    3.93       0  
 304    3:00   52.0    35    9.0   244     13.0    3.93       0  
 304    4:00   51.0    38    5.0   243     13.0    3.93       0  
 304    5:00   51.0    40    6.0   218     12.0    3.93       0  
 304    6:00   50.0    44    3.0   252     11.0    3.93       0  
 304    7:00   48.0    52    5.0   280     16.0    3.93       1  
 304    8:00   53.0    45    1.0   234     10.0    3.93      82  
 304    9:00   55.0    42    3.0    17      6.0    3.93     288  
 304   10:00   60.0    31    2.0    27      6.0    3.93     451  
 304   11:00   62.0    26    4.0   268      9.0    3.93     577  
 304   12:00   63.0    24   12.0   218     22.0    3.93     674  
 304   13:00   63.0    24   13.0   209     23.0    3.93     497  
 304   14:00   62.0    32   25.0   269     33.0    3.93     599  
 304   15:00   61.0    33   20.0   252     34.0    3.93     551  
 304   16:00   59.0    33   23.0   258     33.0    3.93     471  
 304   17:00   53.0    43   25.0   277     34.0    3.93      83  
 304   18:00   50.0    54   17.0   277     35.0    3.93       0  

Return to Desert Springs, Nevada graphs page.


Western Regional Climate Center,wrcc@dri.edu